createdAt,value
2023-05-10T00:02:21.379Z,9.88
2023-05-10T00:05:23.988Z,12.40
2023-05-10T00:08:26.494Z,11.20
2023-05-10T00:11:30.412Z,12.57
2023-05-10T00:14:33.014Z,12.73
2023-05-10T00:17:35.723Z,13.63
2023-05-10T00:20:38.355Z,12.38
2023-05-10T00:23:40.905Z,29.50
2023-05-10T00:26:44.761Z,19.50
2023-05-10T00:29:47.278Z,10.45
2023-05-10T00:32:50.758Z,8.38
2023-05-10T00:35:53.497Z,14.52
2023-05-10T00:38:56.054Z,13.88
2023-05-10T00:42:00.523Z,10.50
2023-05-10T00:45:03.088Z,9.98
2023-05-10T00:48:06.094Z,13.90
2023-05-10T00:51:08.608Z,10.52
2023-05-10T00:54:11.261Z,15.68
2023-05-10T00:57:15.162Z,19.05
2023-05-10T01:00:19.198Z,25.10
2023-05-10T01:03:21.861Z,24.45
2023-05-10T01:06:24.452Z,29.55
2023-05-10T01:09:27.904Z,31.23
2023-05-10T01:12:31.803Z,32.80
2023-05-10T01:15:34.431Z,28.48
2023-05-10T01:18:38.235Z,30.95
2023-05-10T01:21:43.419Z,29.00
2023-05-10T01:25:05.828Z,29.50
2023-05-10T01:28:36.400Z,30.02
2023-05-10T01:31:57.448Z,25.83
2023-05-10T01:35:02.827Z,31.73
2023-05-10T01:38:21.438Z,31.38
2023-05-10T01:41:27.224Z,32.72
2023-05-10T01:44:32.092Z,29.95
2023-05-10T01:47:37.621Z,30.38
2023-05-10T01:50:41.777Z,27.35
2023-05-10T01:53:44.505Z,28.50
2023-05-10T01:56:47.097Z,31.17
2023-05-10T01:59:50.722Z,28.50
2023-05-10T02:02:54.666Z,29.88
2023-05-10T02:05:57.269Z,26.60
2023-05-10T02:08:59.792Z,19.98
2023-05-10T02:12:03.844Z,22.02
2023-05-10T02:15:07.663Z,19.98
2023-05-10T02:18:11.598Z,19.88
2023-05-10T02:21:14.186Z,20.10
2023-05-10T02:24:16.724Z,18.27
2023-05-10T02:27:19.503Z,22.95
2023-05-10T02:30:22.208Z,22.45
2023-05-10T02:33:26.200Z,22.88
2023-05-10T02:36:29.414Z,21.25
2023-05-10T02:39:32.005Z,20.15
2023-05-10T02:42:35.416Z,25.63
2023-05-10T02:45:39.825Z,23.45
2023-05-10T02:48:43.761Z,24.13
2023-05-10T02:51:53.974Z,25.25
2023-05-10T02:54:57.239Z,24.92
2023-05-10T02:58:01.118Z,25.27
2023-05-10T03:01:03.685Z,21.38
2023-05-10T03:04:08.125Z,19.23
2023-05-10T03:07:10.743Z,22.42
2023-05-10T03:10:13.340Z,17.08
2023-05-10T03:13:19.263Z,20.40
2023-05-10T03:16:27.611Z,22.02
2023-05-10T03:19:34.230Z,25.00
2023-05-10T03:22:39.094Z,26.93
2023-05-10T03:25:41.865Z,28.40
2023-05-10T03:28:44.541Z,26.73
2023-05-10T03:31:47.214Z,30.73
2023-05-10T03:34:51.145Z,28.10
2023-05-10T03:37:53.746Z,31.63
2023-05-10T03:40:56.613Z,28.45
2023-05-10T03:43:59.198Z,29.83
2023-05-10T03:47:01.794Z,29.95
2023-05-10T03:50:06.853Z,31.48
2023-05-10T03:53:09.502Z,27.83
2023-05-10T03:56:12.106Z,27.55
2023-05-10T03:59:14.718Z,28.25
2023-05-10T04:02:17.365Z,26.48
2023-05-10T04:05:21.431Z,20.85
2023-05-10T04:08:25.169Z,20.63
2023-05-10T04:11:27.727Z,26.17
2023-05-10T04:14:30.316Z,23.50
2023-05-10T04:17:32.949Z,21.50
2023-05-10T04:20:36.902Z,23.73
2023-05-10T04:23:39.523Z,24.10
2023-05-10T04:26:42.158Z,24.10
2023-05-10T04:29:44.725Z,21.08
2023-05-10T04:32:47.343Z,15.32
2023-05-10T04:35:51.269Z,13.55
2023-05-10T04:38:53.872Z,11.15
2023-05-10T04:41:56.502Z,9.70
2023-05-10T04:44:59.091Z,8.70
2023-05-10T04:48:01.775Z,7.75
2023-05-10T04:51:07.345Z,6.78
2023-05-10T04:54:09.993Z,7.65
2023-05-10T04:57:12.533Z,6.85
2023-05-10T05:00:16.151Z,6.78
2023-05-10T05:03:18.972Z,6.70
2023-05-10T05:06:23.018Z,6.57
2023-05-10T05:09:25.578Z,6.63
2023-05-10T05:12:28.241Z,7.38
2023-05-10T05:15:31.525Z,8.25
2023-05-10T05:18:34.114Z,8.63
2023-05-10T05:21:38.199Z,9.55
2023-05-10T05:24:41.152Z,9.35
2023-05-10T05:27:43.866Z,9.52
2023-05-10T05:30:46.457Z,8.02
2023-05-10T05:33:49.066Z,9.45
2023-05-10T05:36:53.041Z,9.32
2023-05-10T05:39:55.892Z,9.30
2023-05-10T05:42:58.467Z,8.85
2023-05-10T05:46:01.080Z,8.23
2023-05-10T05:49:03.731Z,6.57
2023-05-10T05:52:07.783Z,5.22
2023-05-10T05:55:10.599Z,6.10
2023-05-10T05:58:13.163Z,5.70
2023-05-10T06:01:15.756Z,4.88
2023-05-10T06:04:18.496Z,5.00
2023-05-10T06:07:22.472Z,5.75
2023-05-10T06:10:26.411Z,6.00
2023-05-10T06:13:33.070Z,5.68
2023-05-10T06:16:35.996Z,5.88
2023-05-10T06:19:38.697Z,5.95
2023-05-10T06:22:42.576Z,5.13
2023-05-10T06:25:45.196Z,5.38
2023-05-10T06:28:47.790Z,5.75
2023-05-10T06:31:50.491Z,5.00
2023-05-10T06:34:53.212Z,5.32
2023-05-10T06:37:57.233Z,5.43
2023-05-10T06:40:59.864Z,6.13
2023-05-10T06:44:02.445Z,6.15
2023-05-10T06:47:05.339Z,5.30
2023-05-10T06:50:08.977Z,5.68
2023-05-10T06:53:14.114Z,7.82
2023-05-10T06:56:16.724Z,6.20
2023-05-10T06:59:20.371Z,5.93
2023-05-10T07:02:23.457Z,5.82
2023-05-10T07:05:26.128Z,4.85
2023-05-10T07:08:30.164Z,4.38
2023-05-10T07:11:32.757Z,5.60
2023-05-10T07:14:35.334Z,4.57
2023-05-10T07:17:38.022Z,5.28
2023-05-10T07:20:40.629Z,5.80
2023-05-10T07:23:45.220Z,4.93
2023-05-10T07:26:47.907Z,5.90
2023-05-10T07:29:50.527Z,6.35
2023-05-10T07:32:53.231Z,5.30
2023-05-10T07:35:55.923Z,5.38
2023-05-10T07:38:59.851Z,5.55
2023-05-10T07:42:02.463Z,4.97
2023-05-10T07:45:05.684Z,3.90
2023-05-10T07:48:08.462Z,5.00
2023-05-10T07:51:11.648Z,4.55
2023-05-10T07:54:15.760Z,4.75
2023-05-10T07:57:18.520Z,5.03
2023-05-10T08:00:21.530Z,4.47
2023-05-10T08:03:24.189Z,4.05
2023-05-10T08:06:28.035Z,4.53
2023-05-10T08:09:32.017Z,4.15
2023-05-10T08:12:34.610Z,3.55
2023-05-10T08:15:37.236Z,3.78
2023-05-10T08:18:39.897Z,3.67
2023-05-10T08:21:43.368Z,4.40
2023-05-10T08:24:47.313Z,3.15
2023-05-10T08:27:49.935Z,3.38
2023-05-10T08:30:53.074Z,2.85
2023-05-10T08:33:55.791Z,3.80
2023-05-10T08:36:58.350Z,3.20
2023-05-10T08:40:02.709Z,2.90
2023-05-10T08:43:07.863Z,3.20
2023-05-10T08:46:10.662Z,3.05
2023-05-10T08:49:13.435Z,2.97
2023-05-10T08:52:16.015Z,3.35
2023-05-10T08:55:19.974Z,3.10
2023-05-10T08:58:22.627Z,4.95
2023-05-10T09:01:25.412Z,5.03
2023-05-10T09:04:28.472Z,5.97
2023-05-10T09:07:31.256Z,6.18
2023-05-10T09:10:35.336Z,5.72
2023-05-10T09:13:38.014Z,5.55
2023-05-10T09:16:40.667Z,6.47
2023-05-10T09:19:43.253Z,6.30
2023-05-10T09:22:45.902Z,5.70
2023-05-10T09:25:49.874Z,6.47
2023-05-10T09:28:53.189Z,5.50
2023-05-10T09:31:56.476Z,5.30
2023-05-10T09:34:59.088Z,5.53
2023-05-10T09:38:03.134Z,4.47
2023-05-10T09:41:07.201Z,5.18
2023-05-10T09:44:09.812Z,5.70
2023-05-10T09:47:12.813Z,4.97
2023-05-10T09:50:15.410Z,5.72
2023-05-10T09:53:18.751Z,5.45
2023-05-10T09:56:36.669Z,5.93
2023-05-10T09:59:44.095Z,5.45
2023-05-10T10:02:48.126Z,6.25
2023-05-10T10:05:51.253Z,6.72
2023-05-10T10:08:56.160Z,5.45
2023-05-10T10:12:01.084Z,6.35
2023-05-10T10:15:03.687Z,7.03
2023-05-10T10:18:06.466Z,5.75
2023-05-10T10:21:09.210Z,5.38
2023-05-10T10:24:11.761Z,6.90
2023-05-10T10:27:21.627Z,6.72
2023-05-10T10:30:28.190Z,6.63
2023-05-10T10:33:36.611Z,6.32
2023-05-10T10:36:42.647Z,7.45
2023-05-10T10:39:45.251Z,6.13
2023-05-10T10:42:50.790Z,5.85
2023-05-10T10:46:12.387Z,6.07
2023-05-10T10:49:18.149Z,6.38
2023-05-10T10:52:27.672Z,5.95
2023-05-10T10:55:31.281Z,4.97
2023-05-10T10:58:35.997Z,5.68
2023-05-10T11:01:38.651Z,6.05
2023-05-10T11:04:44.368Z,5.57
2023-05-10T11:07:53.853Z,6.43
2023-05-10T11:11:08.719Z,7.47
2023-05-10T11:14:12.702Z,7.28
2023-05-10T11:17:33.732Z,7.47
2023-05-10T11:20:40.810Z,7.35
2023-05-10T11:23:50.405Z,7.00
2023-05-10T11:26:53.132Z,7.00
2023-05-10T11:29:57.116Z,6.40
2023-05-10T11:32:59.748Z,5.40
2023-05-10T11:36:02.529Z,6.47
2023-05-10T11:39:05.199Z,5.82
2023-05-10T11:42:10.397Z,6.60
2023-05-10T11:45:14.534Z,6.07
2023-05-10T11:48:17.686Z,4.93
2023-05-10T11:51:22.061Z,4.45
2023-05-10T11:54:24.687Z,4.78
2023-05-10T11:57:28.585Z,4.97
2023-05-10T12:00:32.806Z,4.22
2023-05-10T12:03:35.577Z,5.03
2023-05-10T12:06:39.700Z,4.85
2023-05-10T12:09:44.872Z,4.28
2023-05-10T12:12:48.392Z,4.30
2023-05-10T12:15:52.357Z,5.57
2023-05-10T12:18:56.959Z,5.28
2023-05-10T12:21:59.700Z,4.78
2023-05-10T12:25:02.694Z,5.38
2023-05-10T12:28:06.057Z,6.63
2023-05-10T12:31:10.062Z,6.07
2023-05-10T12:34:12.668Z,5.88
2023-05-10T12:37:15.508Z,6.53
2023-05-10T12:40:18.258Z,6.38
2023-05-10T12:43:21.044Z,5.07
2023-05-10T12:46:26.189Z,4.88
2023-05-10T12:49:28.847Z,5.28
2023-05-10T12:52:32.542Z,5.03
2023-05-10T12:55:35.119Z,5.35
2023-05-10T12:58:37.708Z,5.15
2023-05-10T13:01:41.682Z,3.97
2023-05-10T13:04:44.477Z,4.50
2023-05-10T13:07:47.131Z,5.32
2023-05-10T13:10:49.690Z,5.20
2023-05-10T13:13:52.300Z,4.55
2023-05-10T13:16:56.385Z,5.75
2023-05-10T13:19:59.010Z,3.90
2023-05-10T13:23:01.571Z,3.55
2023-05-10T13:26:04.113Z,3.97
2023-05-10T13:29:06.714Z,4.68
2023-05-10T13:32:10.592Z,5.50
2023-05-10T13:35:13.142Z,3.78
2023-05-10T13:38:15.752Z,3.40
2023-05-10T13:41:18.542Z,3.55
2023-05-10T13:44:22.301Z,3.83
2023-05-10T13:47:26.240Z,3.25
2023-05-10T13:50:28.947Z,3.50
2023-05-10T13:53:31.485Z,3.38
2023-05-10T13:56:34.288Z,3.40
2023-05-10T13:59:36.867Z,4.22
2023-05-10T14:02:41.430Z,4.85
2023-05-10T14:05:44.025Z,4.28
2023-05-10T14:08:46.578Z,6.13
2023-05-10T14:11:49.190Z,3.92
2023-05-10T14:14:51.747Z,4.10
2023-05-10T14:17:55.652Z,3.85
2023-05-10T14:20:58.312Z,4.20
2023-05-10T14:24:00.861Z,3.75
2023-05-10T14:27:03.461Z,3.65
2023-05-10T14:30:07.077Z,3.33
2023-05-10T14:33:11.472Z,3.30
2023-05-10T14:36:14.317Z,3.30
2023-05-10T14:39:18.058Z,3.03
2023-05-10T14:42:20.676Z,3.20
2023-05-10T14:45:23.449Z,3.30
2023-05-10T14:48:27.452Z,3.90
2023-05-10T14:51:30.023Z,3.42
2023-05-10T14:54:34.315Z,3.95
2023-05-10T14:57:37.018Z,3.25
2023-05-10T15:00:39.596Z,2.72
2023-05-10T15:03:44.192Z,2.22
2023-05-10T15:06:47.217Z,2.42
2023-05-10T15:09:49.798Z,2.58
2023-05-10T15:12:52.399Z,2.95
2023-05-10T15:15:55.144Z,2.22
2023-05-10T15:18:59.102Z,2.25
2023-05-10T15:22:01.642Z,2.53
2023-05-10T15:25:04.902Z,2.92
2023-05-10T15:28:07.439Z,2.10
2023-05-10T15:31:10.073Z,2.78
2023-05-10T15:34:14.069Z,2.80
2023-05-10T15:37:16.600Z,3.20
2023-05-10T15:40:19.264Z,3.47
2023-05-10T15:43:21.801Z,3.42
2023-05-10T15:46:24.469Z,2.92
2023-05-10T15:49:28.448Z,3.15
2023-05-10T15:52:31.116Z,3.10
2023-05-10T15:55:34.992Z,2.90
2023-05-10T15:58:38.435Z,3.22
2023-05-10T16:01:41.154Z,3.35
2023-05-10T16:04:45.635Z,4.30
2023-05-10T16:07:49.036Z,4.80
2023-05-10T16:10:52.212Z,5.65
2023-05-10T16:13:54.750Z,5.85
2023-05-10T16:16:57.407Z,5.25
2023-05-10T16:20:01.844Z,5.25
2023-05-10T16:23:07.325Z,5.38
2023-05-10T16:26:09.893Z,6.03
2023-05-10T16:29:12.505Z,7.05
2023-05-10T16:32:15.027Z,7.35
2023-05-10T16:35:19.097Z,6.78
2023-05-10T16:38:22.659Z,7.07
2023-05-10T16:41:25.665Z,6.57
2023-05-10T16:44:28.294Z,6.28
2023-05-10T16:47:31.092Z,6.07
2023-05-10T16:50:35.085Z,6.53
2023-05-10T16:53:37.673Z,6.22
2023-05-10T16:56:40.849Z,5.75
2023-05-10T16:59:43.442Z,6.25
2023-05-10T17:02:46.384Z,6.75
2023-05-10T17:05:50.419Z,5.88
2023-05-10T17:08:53.028Z,6.25
2023-05-10T17:11:55.597Z,5.47
2023-05-10T17:14:58.639Z,6.07
2023-05-10T17:18:01.308Z,5.97
2023-05-10T17:21:05.442Z,6.20
2023-05-10T17:24:08.253Z,5.82
2023-05-10T17:27:11.205Z,6.45
2023-05-10T17:30:14.361Z,6.55
2023-05-10T17:33:16.898Z,6.10
2023-05-10T17:36:20.792Z,6.38
2023-05-10T17:39:23.418Z,6.63
2023-05-10T17:42:25.949Z,6.00
2023-05-10T17:45:28.509Z,6.15
2023-05-10T17:48:31.125Z,5.55
2023-05-10T17:51:35.039Z,5.07
2023-05-10T17:54:37.585Z,5.05
2023-05-10T17:57:40.181Z,4.63
2023-05-10T18:00:42.736Z,5.13
2023-05-10T18:03:46.210Z,5.18
2023-05-10T18:06:50.265Z,5.47
2023-05-10T18:09:52.813Z,5.60
2023-05-10T18:12:55.417Z,4.50
2023-05-10T18:15:58.020Z,4.38
2023-05-10T18:19:01.075Z,4.65
2023-05-10T18:22:05.499Z,3.50
2023-05-10T18:25:09.310Z,3.92
2023-05-10T18:28:12.068Z,3.40
2023-05-10T18:31:14.720Z,3.47
2023-05-10T18:34:17.566Z,3.63
2023-05-10T18:37:21.542Z,4.20
2023-05-10T18:40:24.247Z,4.40
2023-05-10T18:43:26.855Z,4.28
2023-05-10T18:46:30.329Z,4.40
2023-05-10T18:49:32.931Z,4.18
2023-05-10T18:52:36.890Z,4.10
2023-05-10T18:55:40.570Z,3.97
2023-05-10T18:58:43.181Z,3.45
2023-05-10T19:01:45.812Z,4.28
2023-05-10T19:04:48.536Z,3.65
2023-05-10T19:07:52.500Z,3.88
2023-05-10T19:10:55.087Z,4.40
2023-05-10T19:13:57.696Z,3.90
2023-05-10T19:17:00.323Z,4.07
2023-05-10T19:20:02.896Z,4.22
2023-05-10T19:23:10.083Z,4.38
2023-05-10T19:26:13.147Z,4.38
2023-05-10T19:29:15.758Z,5.05
2023-05-10T19:32:18.388Z,5.28
2023-05-10T19:35:20.977Z,4.22
2023-05-10T19:38:24.957Z,5.00
2023-05-10T19:41:28.034Z,4.72
2023-05-10T19:44:30.614Z,5.35
2023-05-10T19:47:34.524Z,5.57
2023-05-10T19:50:38.091Z,3.67
2023-05-10T19:53:44.650Z,5.60
2023-05-10T19:56:47.253Z,5.05
2023-05-10T19:59:49.837Z,5.15
2023-05-10T20:02:52.479Z,4.63
2023-05-10T20:05:55.022Z,4.30
2023-05-10T20:08:58.948Z,5.07
2023-05-10T20:12:01.989Z,4.00
2023-05-10T20:15:04.710Z,4.10
2023-05-10T20:18:07.332Z,3.10
2023-05-10T21:14:24.470Z,10.90
2023-05-10T21:17:27.066Z,11.13
2023-05-10T21:20:30.317Z,9.82
2023-05-10T21:23:34.542Z,9.73
2023-05-10T21:26:37.356Z,8.93
2023-05-10T21:29:41.272Z,8.32
2023-05-10T21:32:43.894Z,7.40
2023-05-10T21:35:46.449Z,6.22
2023-05-10T21:38:50.393Z,6.03
2023-05-10T21:41:53.094Z,6.38
2023-05-10T21:44:57.064Z,4.38
2023-05-10T21:47:59.636Z,4.82
2023-05-10T21:51:02.466Z,3.67
2023-05-10T21:54:05.415Z,4.78
2023-05-10T21:57:08.039Z,2.97
2023-05-10T22:00:13.520Z,3.75
2023-05-10T22:03:16.103Z,3.65
2023-05-10T22:06:18.805Z,4.05
2023-05-10T22:09:21.607Z,3.83
2023-05-10T22:12:24.225Z,4.90
2023-05-10T22:15:28.176Z,4.22
2023-05-10T22:18:30.863Z,5.05
2023-05-10T22:21:33.418Z,4.22
2023-05-10T22:24:36.032Z,4.45
2023-05-10T22:27:38.632Z,4.20
2023-05-10T22:30:43.750Z,4.60
2023-05-10T22:33:46.453Z,5.03
2023-05-10T22:36:50.313Z,4.25
2023-05-10T22:39:52.839Z,5.10
2023-05-10T22:42:55.479Z,4.93
2023-05-10T22:45:59.474Z,4.53
2023-05-10T22:49:02.524Z,5.28
2023-05-10T22:52:05.083Z,4.82
2023-05-10T22:55:08.348Z,5.50
2023-05-10T22:58:11.009Z,5.45
2023-05-10T23:01:14.913Z,5.55
2023-05-10T23:04:17.952Z,6.85
2023-05-10T23:07:20.581Z,5.50
2023-05-10T23:10:23.173Z,6.53
2023-05-10T23:13:25.690Z,6.90
2023-05-10T23:16:29.781Z,6.45
2023-05-10T23:19:32.444Z,6.38
2023-05-10T23:35:48.770Z,10.20
2023-05-10T23:38:51.284Z,10.70
2023-05-10T23:41:53.784Z,11.23
2023-05-10T23:44:56.518Z,11.57
2023-05-10T23:47:59.121Z,10.88
2023-05-10T23:51:03.547Z,10.60
2023-05-10T23:54:06.202Z,9.88
2023-05-10T23:57:08.772Z,9.70
